sensor_id;sensor_type;location;lat;lon;timestamp;P1;durP1;ratioP1;P2;durP2;ratioP2
55268;SDS011;41131;42.990;21.954;2023-07-30T00:00:58;8.45;;;5.60;;
55268;SDS011;41131;42.990;21.954;2023-07-30T00:03:24;11.27;;;5.68;;
55268;SDS011;41131;42.990;21.954;2023-07-30T00:05:56;14.57;;;6.20;;
55268;SDS011;41131;42.990;21.954;2023-07-30T00:08:22;13.80;;;5.78;;
55268;SDS011;41131;42.990;21.954;2023-07-30T00:10:49;8.60;;;5.90;;
55268;SDS011;41131;42.990;21.954;2023-07-30T00:13:15;9.75;;;6.78;;
55268;SDS011;41131;42.990;21.954;2023-07-30T00:15:41;10.63;;;6.72;;
55268;SDS011;41131;42.990;21.954;2023-07-30T00:18:07;12.23;;;6.35;;
55268;SDS011;41131;42.990;21.954;2023-07-30T00:20:36;10.57;;;6.10;;
55268;SDS011;41131;42.990;21.954;2023-07-30T00:23:02;11.73;;;6.47;;
55268;SDS011;41131;42.990;21.954;2023-07-30T00:25:28;8.13;;;6.55;;
55268;SDS011;41131;42.990;21.954;2023-07-30T00:27:54;9.60;;;6.70;;
55268;SDS011;41131;42.990;21.954;2023-07-30T00:30:20;16.27;;;6.88;;
55268;SDS011;41131;42.990;21.954;2023-07-30T00:32:46;11.13;;;6.70;;
55268;SDS011;41131;42.990;21.954;2023-07-30T00:35:12;12.15;;;6.78;;
55268;SDS011;41131;42.990;21.954;2023-07-30T00:37:38;10.93;;;6.63;;
55268;SDS011;41131;42.990;21.954;2023-07-30T00:40:05;9.10;;;6.40;;
55268;SDS011;41131;42.990;21.954;2023-07-30T00:42:31;10.55;;;6.80;;
55268;SDS011;41131;42.990;21.954;2023-07-30T00:44:57;8.27;;;6.88;;
55268;SDS011;41131;42.990;21.954;2023-07-30T00:47:23;8.88;;;6.93;;
55268;SDS011;41131;42.990;21.954;2023-07-30T00:49:49;8.38;;;6.85;;
55268;SDS011;41131;42.990;21.954;2023-07-30T00:52:16;10.73;;;7.25;;
55268;SDS011;41131;42.990;21.954;2023-07-30T00:54:42;11.27;;;7.13;;
55268;SDS011;41131;42.990;21.954;2023-07-30T00:57:08;12.20;;;6.93;;
55268;SDS011;41131;42.990;21.954;2023-07-30T00:59:35;11.25;;;7.15;;
55268;SDS011;41131;42.990;21.954;2023-07-30T01:02:01;11.98;;;6.63;;
55268;SDS011;41131;42.990;21.954;2023-07-30T01:04:28;8.75;;;6.45;;
55268;SDS011;41131;42.990;21.954;2023-07-30T01:06:54;8.45;;;6.45;;
55268;SDS011;41131;42.990;21.954;2023-07-30T01:09:20;8.68;;;6.28;;
55268;SDS011;41131;42.990;21.954;2023-07-30T01:11:46;9.82;;;6.05;;
55268;SDS011;41131;42.990;21.954;2023-07-30T01:14:13;8.90;;;5.82;;
55268;SDS011;41131;42.990;21.954;2023-07-30T01:16:40;10.68;;;6.57;;
55268;SDS011;41131;42.990;21.954;2023-07-30T01:19:06;7.07;;;5.95;;
55268;SDS011;41131;42.990;21.954;2023-07-30T01:21:35;12.90;;;7.03;;
55268;SDS011;41131;42.990;21.954;2023-07-30T01:24:01;10.38;;;7.63;;
55268;SDS011;41131;42.990;21.954;2023-07-30T01:26:38;13.75;;;7.50;;
55268;SDS011;41131;42.990;21.954;2023-07-30T01:29:07;8.85;;;6.78;;
55268;SDS011;41131;42.990;21.954;2023-07-30T01:31:35;8.90;;;7.15;;
55268;SDS011;41131;42.990;21.954;2023-07-30T01:34:02;10.35;;;6.97;;
55268;SDS011;41131;42.990;21.954;2023-07-30T01:36:29;12.18;;;6.32;;
55268;SDS011;41131;42.990;21.954;2023-07-30T01:38:55;8.35;;;6.55;;
55268;SDS011;41131;42.990;21.954;2023-07-30T01:41:22;10.75;;;6.53;;
55268;SDS011;41131;42.990;21.954;2023-07-30T01:43:49;11.07;;;5.90;;
55268;SDS011;41131;42.990;21.954;2023-07-30T01:46:15;9.18;;;5.82;;
55268;SDS011;41131;42.990;21.954;2023-07-30T01:48:41;9.38;;;6.10;;
55268;SDS011;41131;42.990;21.954;2023-07-30T01:51:07;7.40;;;5.93;;
55268;SDS011;41131;42.990;21.954;2023-07-30T01:53:33;7.82;;;5.95;;
55268;SDS011;41131;42.990;21.954;2023-07-30T01:55:59;7.55;;;5.90;;
55268;SDS011;41131;42.990;21.954;2023-07-30T01:58:25;9.48;;;5.78;;
55268;SDS011;41131;42.990;21.954;2023-07-30T02:00:51;10.18;;;6.18;;
55268;SDS011;41131;42.990;21.954;2023-07-30T02:03:17;8.73;;;5.65;;
55268;SDS011;41131;42.990;21.954;2023-07-30T02:05:44;10.00;;;5.85;;
55268;SDS011;41131;42.990;21.954;2023-07-30T02:08:10;7.10;;;5.57;;
55268;SDS011;41131;42.990;21.954;2023-07-30T02:10:38;8.65;;;5.88;;
55268;SDS011;41131;42.990;21.954;2023-07-30T02:13:04;12.48;;;6.43;;
55268;SDS011;41131;42.990;21.954;2023-07-30T02:15:30;9.02;;;6.82;;
55268;SDS011;41131;42.990;21.954;2023-07-30T02:17:56;8.82;;;7.22;;
55268;SDS011;41131;42.990;21.954;2023-07-30T02:20:22;8.23;;;7.20;;
55268;SDS011;41131;42.990;21.954;2023-07-30T02:22:48;9.45;;;7.50;;
55268;SDS011;41131;42.990;21.954;2023-07-30T02:25:14;12.32;;;8.70;;
55268;SDS011;41131;42.990;21.954;2023-07-30T02:27:40;11.77;;;8.05;;
55268;SDS011;41131;42.990;21.954;2023-07-30T02:30:06;11.73;;;8.73;;
55268;SDS011;41131;42.990;21.954;2023-07-30T02:32:32;14.75;;;8.55;;
55268;SDS011;41131;42.990;21.954;2023-07-30T02:34:58;9.05;;;8.07;;
55268;SDS011;41131;42.990;21.954;2023-07-30T02:37:24;15.02;;;9.43;;
55268;SDS011;41131;42.990;21.954;2023-07-30T02:39:51;13.02;;;9.23;;
55268;SDS011;41131;42.990;21.954;2023-07-30T02:42:17;13.50;;;9.27;;
55268;SDS011;41131;42.990;21.954;2023-07-30T02:44:43;11.23;;;8.70;;
55268;SDS011;41131;42.990;21.954;2023-07-30T02:47:09;9.45;;;8.05;;
55268;SDS011;41131;42.990;21.954;2023-07-30T02:49:35;13.55;;;8.48;;
55268;SDS011;41131;42.990;21.954;2023-07-30T02:52:01;9.00;;;8.02;;
55268;SDS011;41131;42.990;21.954;2023-07-30T02:54:27;10.82;;;7.93;;
55268;SDS011;41131;42.990;21.954;2023-07-30T02:56:53;15.32;;;8.60;;
55268;SDS011;41131;42.990;21.954;2023-07-30T02:59:19;11.05;;;8.63;;
55268;SDS011;41131;42.990;21.954;2023-07-30T03:01:45;14.15;;;8.93;;
55268;SDS011;41131;42.990;21.954;2023-07-30T03:04:11;10.10;;;7.88;;
55268;SDS011;41131;42.990;21.954;2023-07-30T03:06:37;10.40;;;8.35;;
55268;SDS011;41131;42.990;21.954;2023-07-30T03:09:03;9.93;;;7.88;;
55268;SDS011;41131;42.990;21.954;2023-07-30T03:11:29;10.07;;;8.15;;
55268;SDS011;41131;42.990;21.954;2023-07-30T03:13:55;10.98;;;7.47;;
55268;SDS011;41131;42.990;21.954;2023-07-30T03:16:21;15.75;;;9.02;;
55268;SDS011;41131;42.990;21.954;2023-07-30T03:18:47;10.82;;;8.55;;
55268;SDS011;41131;42.990;21.954;2023-07-30T03:21:13;12.43;;;9.07;;
55268;SDS011;41131;42.990;21.954;2023-07-30T03:23:39;13.95;;;8.13;;
55268;SDS011;41131;42.990;21.954;2023-07-30T03:26:08;11.50;;;7.88;;
55268;SDS011;41131;42.990;21.954;2023-07-30T03:28:34;11.75;;;8.45;;
55268;SDS011;41131;42.990;21.954;2023-07-30T03:31:00;9.65;;;7.78;;
55268;SDS011;41131;42.990;21.954;2023-07-30T03:33:26;13.45;;;7.15;;
55268;SDS011;41131;42.990;21.954;2023-07-30T03:35:52;9.23;;;6.13;;
55268;SDS011;41131;42.990;21.954;2023-07-30T03:38:18;8.93;;;6.28;;
55268;SDS011;41131;42.990;21.954;2023-07-30T03:40:44;10.15;;;5.85;;
55268;SDS011;41131;42.990;21.954;2023-07-30T03:43:10;6.47;;;5.78;;
55268;SDS011;41131;42.990;21.954;2023-07-30T03:45:36;8.95;;;5.95;;
55268;SDS011;41131;42.990;21.954;2023-07-30T03:48:02;8.73;;;6.47;;
55268;SDS011;41131;42.990;21.954;2023-07-30T03:50:28;8.25;;;6.55;;
55268;SDS011;41131;42.990;21.954;2023-07-30T03:52:54;9.50;;;6.43;;
55268;SDS011;41131;42.990;21.954;2023-07-30T03:55:22;9.50;;;6.70;;
55268;SDS011;41131;42.990;21.954;2023-07-30T03:57:48;11.50;;;7.80;;
55268;SDS011;41131;42.990;21.954;2023-07-30T04:00:14;12.07;;;7.88;;
55268;SDS011;41131;42.990;21.954;2023-07-30T04:02:40;11.27;;;6.95;;
55268;SDS011;41131;42.990;21.954;2023-07-30T04:05:06;9.00;;;6.30;;
55268;SDS011;41131;42.990;21.954;2023-07-30T04:07:32;14.15;;;7.07;;
55268;SDS011;41131;42.990;21.954;2023-07-30T04:09:58;11.90;;;7.03;;
55268;SDS011;41131;42.990;21.954;2023-07-30T04:12:24;10.27;;;6.85;;
55268;SDS011;41131;42.990;21.954;2023-07-30T04:14:50;10.23;;;7.55;;
55268;SDS011;41131;42.990;21.954;2023-07-30T04:17:16;12.10;;;7.45;;
55268;SDS011;41131;42.990;21.954;2023-07-30T04:19:42;18.52;;;10.82;;
55268;SDS011;41131;42.990;21.954;2023-07-30T04:22:08;10.52;;;7.32;;
55268;SDS011;41131;42.990;21.954;2023-07-30T04:24:34;11.95;;;6.78;;
55268;SDS011;41131;42.990;21.954;2023-07-30T04:27:00;8.35;;;6.82;;
55268;SDS011;41131;42.990;21.954;2023-07-30T04:29:27;15.60;;;7.10;;
55268;SDS011;41131;42.990;21.954;2023-07-30T04:31:53;9.15;;;6.85;;
55268;SDS011;41131;42.990;21.954;2023-07-30T04:34:19;14.98;;;6.25;;
55268;SDS011;41131;42.990;21.954;2023-07-30T04:36:45;10.13;;;7.15;;
55268;SDS011;41131;42.990;21.954;2023-07-30T04:39:11;12.48;;;6.88;;
55268;SDS011;41131;42.990;21.954;2023-07-30T04:41:37;10.10;;;6.75;;
55268;SDS011;41131;42.990;21.954;2023-07-30T04:44:03;11.00;;;7.05;;
55268;SDS011;41131;42.990;21.954;2023-07-30T04:46:29;18.92;;;7.35;;
55268;SDS011;41131;42.990;21.954;2023-07-30T04:48:56;13.65;;;7.22;;
55268;SDS011;41131;42.990;21.954;2023-07-30T04:51:22;10.18;;;7.50;;
55268;SDS011;41131;42.990;21.954;2023-07-30T04:53:48;10.20;;;7.43;;
55268;SDS011;41131;42.990;21.954;2023-07-30T04:56:14;12.05;;;7.70;;
55268;SDS011;41131;42.990;21.954;2023-07-30T04:58:40;9.98;;;7.53;;
55268;SDS011;41131;42.990;21.954;2023-07-30T05:01:06;9.48;;;7.10;;
55268;SDS011;41131;42.990;21.954;2023-07-30T05:03:32;10.65;;;6.80;;
55268;SDS011;41131;42.990;21.954;2023-07-30T05:05:58;9.98;;;6.15;;
55268;SDS011;41131;42.990;21.954;2023-07-30T05:08:24;8.93;;;6.43;;
55268;SDS011;41131;42.990;21.954;2023-07-30T05:10:50;11.90;;;6.78;;
55268;SDS011;41131;42.990;21.954;2023-07-30T05:13:16;8.43;;;5.85;;
55268;SDS011;41131;42.990;21.954;2023-07-30T05:15:42;8.93;;;5.53;;
55268;SDS011;41131;42.990;21.954;2023-07-30T05:18:08;7.10;;;5.85;;
55268;SDS011;41131;42.990;21.954;2023-07-30T05:20:34;9.68;;;5.00;;
55268;SDS011;41131;42.990;21.954;2023-07-30T05:23:01;7.18;;;5.57;;
55268;SDS011;41131;42.990;21.954;2023-07-30T05:25:27;8.55;;;5.60;;
55268;SDS011;41131;42.990;21.954;2023-07-30T05:27:53;6.57;;;5.40;;
55268;SDS011;41131;42.990;21.954;2023-07-30T05:30:19;7.47;;;4.55;;
55268;SDS011;41131;42.990;21.954;2023-07-30T05:32:45;6.43;;;5.00;;
55268;SDS011;41131;42.990;21.954;2023-07-30T05:35:11;6.93;;;5.10;;
55268;SDS011;41131;42.990;21.954;2023-07-30T05:37:37;7.25;;;5.20;;
55268;SDS011;41131;42.990;21.954;2023-07-30T05:40:03;6.35;;;4.85;;
55268;SDS011;41131;42.990;21.954;2023-07-30T05:42:29;6.50;;;5.20;;
55268;SDS011;41131;42.990;21.954;2023-07-30T05:44:55;6.50;;;5.68;;
55268;SDS011;41131;42.990;21.954;2023-07-30T05:47:21;7.80;;;5.78;;
55268;SDS011;41131;42.990;21.954;2023-07-30T05:49:48;7.88;;;6.13;;
55268;SDS011;41131;42.990;21.954;2023-07-30T05:52:14;12.00;;;7.60;;
55268;SDS011;41131;42.990;21.954;2023-07-30T05:54:40;10.13;;;7.85;;
55268;SDS011;41131;42.990;21.954;2023-07-30T05:57:06;9.52;;;7.20;;
55268;SDS011;41131;42.990;21.954;2023-07-30T05:59:32;7.50;;;6.60;;
55268;SDS011;41131;42.990;21.954;2023-07-30T06:02:01;10.70;;;6.38;;
55268;SDS011;41131;42.990;21.954;2023-07-30T06:04:27;9.20;;;5.88;;
55268;SDS011;41131;42.990;21.954;2023-07-30T06:06:53;7.90;;;6.22;;
55268;SDS011;41131;42.990;21.954;2023-07-30T06:09:19;12.00;;;6.75;;
55268;SDS011;41131;42.990;21.954;2023-07-30T06:11:46;7.82;;;6.22;;
55268;SDS011;41131;42.990;21.954;2023-07-30T06:14:12;9.32;;;5.78;;
55268;SDS011;41131;42.990;21.954;2023-07-30T06:16:38;10.38;;;5.82;;
55268;SDS011;41131;42.990;21.954;2023-07-30T06:19:04;10.98;;;5.75;;
55268;SDS011;41131;42.990;21.954;2023-07-30T06:21:30;10.88;;;5.93;;
55268;SDS011;41131;42.990;21.954;2023-07-30T06:23:56;8.75;;;5.63;;
55268;SDS011;41131;42.990;21.954;2023-07-30T06:26:22;9.57;;;6.15;;
55268;SDS011;41131;42.990;21.954;2023-07-30T06:28:48;8.00;;;5.28;;
55268;SDS011;41131;42.990;21.954;2023-07-30T06:31:14;8.32;;;5.82;;
55268;SDS011;41131;42.990;21.954;2023-07-30T06:33:40;10.27;;;5.82;;
55268;SDS011;41131;42.990;21.954;2023-07-30T06:36:06;9.00;;;5.72;;
55268;SDS011;41131;42.990;21.954;2023-07-30T06:38:32;7.53;;;5.70;;
55268;SDS011;41131;42.990;21.954;2023-07-30T06:40:58;9.48;;;5.93;;
55268;SDS011;41131;42.990;21.954;2023-07-30T06:43:24;12.02;;;6.22;;
55268;SDS011;41131;42.990;21.954;2023-07-30T06:45:50;8.07;;;5.88;;
55268;SDS011;41131;42.990;21.954;2023-07-30T06:48:16;8.25;;;5.90;;
55268;SDS011;41131;42.990;21.954;2023-07-30T06:50:42;9.80;;;6.03;;
55268;SDS011;41131;42.990;21.954;2023-07-30T06:53:08;8.00;;;6.03;;
55268;SDS011;41131;42.990;21.954;2023-07-30T06:55:34;9.10;;;6.25;;
55268;SDS011;41131;42.990;21.954;2023-07-30T06:58:00;8.35;;;6.50;;
55268;SDS011;41131;42.990;21.954;2023-07-30T07:00:27;9.55;;;6.72;;
55268;SDS011;41131;42.990;21.954;2023-07-30T07:02:53;7.00;;;5.35;;
55268;SDS011;41131;42.990;21.954;2023-07-30T07:05:19;10.20;;;5.72;;
55268;SDS011;41131;42.990;21.954;2023-07-30T07:07:45;8.73;;;6.40;;
55268;SDS011;41131;42.990;21.954;2023-07-30T07:10:10;10.13;;;6.53;;
55268;SDS011;41131;42.990;21.954;2023-07-30T07:12:37;11.07;;;6.13;;
55268;SDS011;41131;42.990;21.954;2023-07-30T07:15:03;10.65;;;5.30;;
55268;SDS011;41131;42.990;21.954;2023-07-30T07:17:30;12.30;;;5.45;;
55268;SDS011;41131;42.990;21.954;2023-07-30T07:19:56;8.02;;;5.50;;
55268;SDS011;41131;42.990;21.954;2023-07-30T07:22:22;9.98;;;5.53;;
55268;SDS011;41131;42.990;21.954;2023-07-30T07:24:48;21.33;;;6.60;;
55268;SDS011;41131;42.990;21.954;2023-07-30T07:27:17;11.60;;;6.38;;
55268;SDS011;41131;42.990;21.954;2023-07-30T07:29:43;14.85;;;6.78;;
55268;SDS011;41131;42.990;21.954;2023-07-30T07:32:09;8.60;;;6.20;;
55268;SDS011;41131;42.990;21.954;2023-07-30T07:34:35;15.75;;;6.32;;
55268;SDS011;41131;42.990;21.954;2023-07-30T07:37:01;10.65;;;5.22;;
55268;SDS011;41131;42.990;21.954;2023-07-30T07:39:28;10.70;;;5.88;;
55268;SDS011;41131;42.990;21.954;2023-07-30T07:41:54;9.95;;;5.45;;
55268;SDS011;41131;42.990;21.954;2023-07-30T07:44:21;10.48;;;5.63;;
55268;SDS011;41131;42.990;21.954;2023-07-30T07:46:47;9.43;;;5.55;;
55268;SDS011;41131;42.990;21.954;2023-07-30T07:49:13;9.98;;;6.25;;
55268;SDS011;41131;42.990;21.954;2023-07-30T07:51:39;8.20;;;5.82;;
55268;SDS011;41131;42.990;21.954;2023-07-30T07:54:05;9.30;;;6.70;;
55268;SDS011;41131;42.990;21.954;2023-07-30T07:56:31;9.05;;;5.78;;
55268;SDS011;41131;42.990;21.954;2023-07-30T07:58:58;8.40;;;6.00;;
55268;SDS011;41131;42.990;21.954;2023-07-30T08:01:24;7.88;;;5.53;;
55268;SDS011;41131;42.990;21.954;2023-07-30T08:03:50;9.38;;;5.53;;
55268;SDS011;41131;42.990;21.954;2023-07-30T08:06:16;8.13;;;5.38;;
55268;SDS011;41131;42.990;21.954;2023-07-30T08:08:42;11.38;;;5.07;;
55268;SDS011;41131;42.990;21.954;2023-07-30T08:11:09;10.18;;;5.78;;
55268;SDS011;41131;42.990;21.954;2023-07-30T08:13:35;6.07;;;4.70;;
55268;SDS011;41131;42.990;21.954;2023-07-30T08:16:01;7.07;;;5.20;;
55268;SDS011;41131;42.990;21.954;2023-07-30T08:18:27;9.93;;;5.07;;
55268;SDS011;41131;42.990;21.954;2023-07-30T08:20:54;10.45;;;4.90;;
55268;SDS011;41131;42.990;21.954;2023-07-30T08:23:20;6.78;;;4.70;;
55268;SDS011;41131;42.990;21.954;2023-07-30T08:25:46;8.57;;;4.88;;
55268;SDS011;41131;42.990;21.954;2023-07-30T08:28:14;25.70;;;5.60;;
55268;SDS011;41131;42.990;21.954;2023-07-30T08:30:41;7.30;;;4.93;;
55268;SDS011;41131;42.990;21.954;2023-07-30T08:33:07;6.90;;;4.85;;
55268;SDS011;41131;42.990;21.954;2023-07-30T08:35:33;6.15;;;4.30;;
55268;SDS011;41131;42.990;21.954;2023-07-30T08:37:59;7.00;;;5.05;;
55268;SDS011;41131;42.990;21.954;2023-07-30T08:40:25;6.35;;;4.80;;
55268;SDS011;41131;42.990;21.954;2023-07-30T08:42:51;6.28;;;4.78;;
55268;SDS011;41131;42.990;21.954;2023-07-30T08:45:17;8.48;;;5.10;;
55268;SDS011;41131;42.990;21.954;2023-07-30T08:47:44;9.20;;;5.25;;
55268;SDS011;41131;42.990;21.954;2023-07-30T08:50:10;10.15;;;5.25;;
55268;SDS011;41131;42.990;21.954;2023-07-30T08:52:36;8.05;;;4.95;;
55268;SDS011;41131;42.990;21.954;2023-07-30T08:55:03;11.30;;;5.25;;
55268;SDS011;41131;42.990;21.954;2023-07-30T08:57:29;8.10;;;5.38;;
55268;SDS011;41131;42.990;21.954;2023-07-30T09:00:05;7.70;;;4.70;;
55268;SDS011;41131;42.990;21.954;2023-07-30T09:02:55;7.50;;;4.93;;
55268;SDS011;41131;42.990;21.954;2023-07-30T09:05:20;6.72;;;5.32;;
55268;SDS011;41131;42.990;21.954;2023-07-30T09:07:47;8.10;;;5.97;;
55268;SDS011;41131;42.990;21.954;2023-07-30T09:10:13;7.63;;;4.97;;
55268;SDS011;41131;42.990;21.954;2023-07-30T09:12:40;6.65;;;5.00;;
55268;SDS011;41131;42.990;21.954;2023-07-30T09:15:06;10.95;;;5.45;;
55268;SDS011;41131;42.990;21.954;2023-07-30T09:17:33;6.82;;;4.78;;
55268;SDS011;41131;42.990;21.954;2023-07-30T09:20:00;6.68;;;5.10;;
55268;SDS011;41131;42.990;21.954;2023-07-30T09:24:53;6.18;;;5.07;;
55268;SDS011;41131;42.990;21.954;2023-07-30T09:27:25;8.07;;;5.45;;
55268;SDS011;41131;42.990;21.954;2023-07-30T09:29:55;9.48;;;5.05;;
55268;SDS011;41131;42.990;21.954;2023-07-30T09:32:28;5.93;;;4.80;;
55268;SDS011;41131;42.990;21.954;2023-07-30T09:34:54;7.78;;;5.03;;
55268;SDS011;41131;42.990;21.954;2023-07-30T09:37:20;7.07;;;5.07;;
55268;SDS011;41131;42.990;21.954;2023-07-30T09:39:50;7.82;;;5.40;;
55268;SDS011;41131;42.990;21.954;2023-07-30T09:42:16;8.10;;;5.18;;
55268;SDS011;41131;42.990;21.954;2023-07-30T09:44:42;7.03;;;5.00;;
55268;SDS011;41131;42.990;21.954;2023-07-30T09:47:09;5.72;;;4.93;;
55268;SDS011;41131;42.990;21.954;2023-07-30T09:49:36;7.80;;;5.57;;
55268;SDS011;41131;42.990;21.954;2023-07-30T09:52:02;6.82;;;5.15;;
55268;SDS011;41131;42.990;21.954;2023-07-30T09:54:29;7.78;;;5.10;;
55268;SDS011;41131;42.990;21.954;2023-07-30T09:56:55;12.10;;;5.70;;
55268;SDS011;41131;42.990;21.954;2023-07-30T09:59:21;5.90;;;5.00;;
55268;SDS011;41131;42.990;21.954;2023-07-30T10:01:48;11.30;;;4.90;;
55268;SDS011;41131;42.990;21.954;2023-07-30T10:04:14;7.88;;;5.22;;
55268;SDS011;41131;42.990;21.954;2023-07-30T10:06:41;6.78;;;4.82;;
55268;SDS011;41131;42.990;21.954;2023-07-30T10:09:09;7.28;;;4.93;;
55268;SDS011;41131;42.990;21.954;2023-07-30T10:11:36;7.22;;;5.10;;
55268;SDS011;41131;42.990;21.954;2023-07-30T10:14:03;8.00;;;5.60;;
55268;SDS011;41131;42.990;21.954;2023-07-30T10:16:29;7.15;;;5.30;;
55268;SDS011;41131;42.990;21.954;2023-07-30T10:18:56;7.68;;;5.20;;
55268;SDS011;41131;42.990;21.954;2023-07-30T10:21:25;5.82;;;4.28;;
55268;SDS011;41131;42.990;21.954;2023-07-30T10:23:58;5.55;;;4.35;;
55268;SDS011;41131;42.990;21.954;2023-07-30T10:26:27;10.02;;;4.60;;
55268;SDS011;41131;42.990;21.954;2023-07-30T10:29:12;5.40;;;4.50;;
55268;SDS011;41131;42.990;21.954;2023-07-30T10:31:43;8.70;;;5.00;;
55268;SDS011;41131;42.990;21.954;2023-07-30T10:34:09;5.75;;;4.78;;
55268;SDS011;41131;42.990;21.954;2023-07-30T10:36:40;7.72;;;4.60;;
55268;SDS011;41131;42.990;21.954;2023-07-30T10:41:33;5.28;;;4.65;;
55268;SDS011;41131;42.990;21.954;2023-07-30T10:43:59;6.25;;;5.00;;
55268;SDS011;41131;42.990;21.954;2023-07-30T10:46:25;7.43;;;4.40;;
55268;SDS011;41131;42.990;21.954;2023-07-30T10:48:53;7.20;;;4.65;;
55268;SDS011;41131;42.990;21.954;2023-07-30T10:51:19;10.50;;;4.97;;
55268;SDS011;41131;42.990;21.954;2023-07-30T10:53:49;8.10;;;7.30;;
55268;SDS011;41131;42.990;21.954;2023-07-30T10:56:16;9.43;;;6.28;;
55268;SDS011;41131;42.990;21.954;2023-07-30T10:58:43;7.88;;;5.22;;
55268;SDS011;41131;42.990;21.954;2023-07-30T11:01:10;7.72;;;4.97;;
55268;SDS011;41131;42.990;21.954;2023-07-30T11:03:36;8.57;;;5.10;;
55268;SDS011;41131;42.990;21.954;2023-07-30T11:06:03;6.10;;;4.40;;
55268;SDS011;41131;42.990;21.954;2023-07-30T11:10:59;6.15;;;4.57;;
55268;SDS011;41131;42.990;21.954;2023-07-30T11:13:25;7.25;;;4.30;;
55268;SDS011;41131;42.990;21.954;2023-07-30T11:15:52;6.78;;;4.47;;
55268;SDS011;41131;42.990;21.954;2023-07-30T11:18:18;9.73;;;4.50;;
55268;SDS011;41131;42.990;21.954;2023-07-30T11:20:44;7.65;;;4.47;;
55268;SDS011;41131;42.990;21.954;2023-07-30T11:23:17;7.95;;;4.60;;
55268;SDS011;41131;42.990;21.954;2023-07-30T11:25:49;9.77;;;4.97;;
55268;SDS011;41131;42.990;21.954;2023-07-30T11:28:26;6.25;;;4.50;;
55268;SDS011;41131;42.990;21.954;2023-07-30T11:30:53;5.50;;;4.53;;
55268;SDS011;41131;42.990;21.954;2023-07-30T11:33:19;8.75;;;5.00;;
55268;SDS011;41131;42.990;21.954;2023-07-30T11:35:45;6.47;;;4.47;;
55268;SDS011;41131;42.990;21.954;2023-07-30T11:38:11;7.00;;;4.13;;
55268;SDS011;41131;42.990;21.954;2023-07-30T11:40:39;8.10;;;5.00;;
55268;SDS011;41131;42.990;21.954;2023-07-30T11:43:05;6.78;;;4.60;;
55268;SDS011;41131;42.990;21.954;2023-07-30T11:45:31;8.75;;;4.68;;
55268;SDS011;41131;42.990;21.954;2023-07-30T11:48:07;12.55;;;4.90;;
55268;SDS011;41131;42.990;21.954;2023-07-30T11:53:12;5.78;;;4.40;;
55268;SDS011;41131;42.990;21.954;2023-07-30T11:55:38;6.68;;;4.15;;
55268;SDS011;41131;42.990;21.954;2023-07-30T11:58:05;5.95;;;4.55;;
55268;SDS011;41131;42.990;21.954;2023-07-30T12:00:32;7.82;;;4.03;;
55268;SDS011;41131;42.990;21.954;2023-07-30T12:03:04;9.98;;;4.57;;
55268;SDS011;41131;42.990;21.954;2023-07-30T12:05:34;8.88;;;5.00;;
55268;SDS011;41131;42.990;21.954;2023-07-30T12:08:03;7.18;;;4.18;;
55268;SDS011;41131;42.990;21.954;2023-07-30T12:10:45;8.88;;;4.70;;
55268;SDS011;41131;42.990;21.954;2023-07-30T12:13:13;8.77;;;4.80;;
55268;SDS011;41131;42.990;21.954;2023-07-30T12:15:39;7.63;;;4.68;;
55268;SDS011;41131;42.990;21.954;2023-07-30T12:18:05;8.27;;;4.22;;
55268;SDS011;41131;42.990;21.954;2023-07-30T12:20:31;8.23;;;4.82;;
55268;SDS011;41131;42.990;21.954;2023-07-30T12:22:57;5.70;;;4.72;;
55268;SDS011;41131;42.990;21.954;2023-07-30T12:25:23;6.47;;;4.97;;
55268;SDS011;41131;42.990;21.954;2023-07-30T12:27:49;6.30;;;4.22;;
55268;SDS011;41131;42.990;21.954;2023-07-30T12:30:15;6.25;;;4.60;;
55268;SDS011;41131;42.990;21.954;2023-07-30T12:32:41;8.77;;;4.90;;
55268;SDS011;41131;42.990;21.954;2023-07-30T12:35:07;6.65;;;4.30;;
55268;SDS011;41131;42.990;21.954;2023-07-30T12:37:33;5.35;;;4.60;;
55268;SDS011;41131;42.990;21.954;2023-07-30T12:40:00;7.10;;;5.38;;
55268;SDS011;41131;42.990;21.954;2023-07-30T12:42:26;14.45;;;7.68;;
55268;SDS011;41131;42.990;21.954;2023-07-30T12:44:52;6.97;;;5.30;;
55268;SDS011;41131;42.990;21.954;2023-07-30T12:47:18;12.10;;;6.32;;
55268;SDS011;41131;42.990;21.954;2023-07-30T12:49:44;6.88;;;4.88;;
55268;SDS011;41131;42.990;21.954;2023-07-30T12:52:10;5.80;;;4.60;;
55268;SDS011;41131;42.990;21.954;2023-07-30T12:54:36;10.32;;;4.60;;
55268;SDS011;41131;42.990;21.954;2023-07-30T12:57:02;9.55;;;4.40;;
55268;SDS011;41131;42.990;21.954;2023-07-30T12:59:29;5.45;;;4.15;;
55268;SDS011;41131;42.990;21.954;2023-07-30T13:01:56;8.65;;;5.03;;
55268;SDS011;41131;42.990;21.954;2023-07-30T13:04:23;13.95;;;4.75;;
55268;SDS011;41131;42.990;21.954;2023-07-30T13:06:52;9.00;;;4.97;;
55268;SDS011;41131;42.990;21.954;2023-07-30T13:09:18;9.60;;;4.88;;
55268;SDS011;41131;42.990;21.954;2023-07-30T13:11:44;9.07;;;4.55;;
55268;SDS011;41131;42.990;21.954;2023-07-30T13:14:11;6.55;;;4.70;;
55268;SDS011;41131;42.990;21.954;2023-07-30T13:16:37;6.53;;;3.97;;
55268;SDS011;41131;42.990;21.954;2023-07-30T13:19:03;8.10;;;4.43;;
55268;SDS011;41131;42.990;21.954;2023-07-30T13:21:29;9.35;;;4.95;;
55268;SDS011;41131;42.990;21.954;2023-07-30T13:23:55;7.63;;;4.28;;
55268;SDS011;41131;42.990;21.954;2023-07-30T13:26:21;7.80;;;4.57;;
55268;SDS011;41131;42.990;21.954;2023-07-30T13:28:47;6.40;;;4.93;;
55268;SDS011;41131;42.990;21.954;2023-07-30T13:31:13;7.57;;;4.70;;
55268;SDS011;41131;42.990;21.954;2023-07-30T13:33:39;7.05;;;4.30;;
55268;SDS011;41131;42.990;21.954;2023-07-30T13:36:05;6.13;;;4.15;;
55268;SDS011;41131;42.990;21.954;2023-07-30T13:38:31;15.45;;;4.65;;
55268;SDS011;41131;42.990;21.954;2023-07-30T13:40:57;12.18;;;4.95;;
55268;SDS011;41131;42.990;21.954;2023-07-30T13:43:23;8.30;;;4.60;;
55268;SDS011;41131;42.990;21.954;2023-07-30T13:45:51;6.13;;;4.53;;
55268;SDS011;41131;42.990;21.954;2023-07-30T13:48:17;5.75;;;4.10;;
55268;SDS011;41131;42.990;21.954;2023-07-30T13:50:43;8.52;;;3.95;;
55268;SDS011;41131;42.990;21.954;2023-07-30T13:53:09;9.30;;;4.38;;
55268;SDS011;41131;42.990;21.954;2023-07-30T13:55:37;5.90;;;4.13;;
55268;SDS011;41131;42.990;21.954;2023-07-30T13:58:03;9.07;;;4.18;;
55268;SDS011;41131;42.990;21.954;2023-07-30T14:00:29;7.82;;;3.95;;
55268;SDS011;41131;42.990;21.954;2023-07-30T14:02:55;7.22;;;3.88;;
55268;SDS011;41131;42.990;21.954;2023-07-30T14:05:21;6.80;;;4.60;;
55268;SDS011;41131;42.990;21.954;2023-07-30T14:07:48;8.25;;;4.90;;
55268;SDS011;41131;42.990;21.954;2023-07-30T14:10:16;9.60;;;4.78;;
55268;SDS011;41131;42.990;21.954;2023-07-30T14:12:42;6.90;;;4.30;;
55268;SDS011;41131;42.990;21.954;2023-07-30T14:15:08;5.18;;;4.00;;
55268;SDS011;41131;42.990;21.954;2023-07-30T14:17:34;9.52;;;4.55;;
55268;SDS011;41131;42.990;21.954;2023-07-30T14:20:00;9.40;;;4.45;;
55268;SDS011;41131;42.990;21.954;2023-07-30T14:22:26;7.75;;;4.20;;
55268;SDS011;41131;42.990;21.954;2023-07-30T14:24:52;8.13;;;4.55;;
55268;SDS011;41131;42.990;21.954;2023-07-30T14:27:17;7.63;;;4.63;;
55268;SDS011;41131;42.990;21.954;2023-07-30T14:29:44;18.05;;;5.53;;
55268;SDS011;41131;42.990;21.954;2023-07-30T14:32:10;11.93;;;4.85;;
55268;SDS011;41131;42.990;21.954;2023-07-30T14:34:36;13.30;;;4.95;;
55268;SDS011;41131;42.990;21.954;2023-07-30T14:37:02;15.70;;;4.78;;